Time;durP1;ratioP1;P1;durP2;ratioP2;P2;SDS_P1;SDS_P2;PMS_P1;PMS_P2;Temp;Humidity;BMP_temperature;BMP_pressure;BME280_temperature;BME280_humidity;BME280_pressure;Samples;Min_cycle;Max_cycle;Signal;HPM_P1;HPM_P2
2022/09/09 00:00:15;;;;;;;915.30;835.87;;;14.80;99.90;;;;;;4988361;28;20455;-85
2022/09/09 00:02:46;;;;;;;920.67;842.07;;;14.80;99.90;;;;;;4987547;28;20467;-86
2022/09/09 00:05:21;;;;;;;917.40;839.23;;;14.70;99.90;;;;;;4986519;28;20435;-85
2022/09/09 00:07:50;;;;;;;915.03;836.97;;;14.70;99.90;;;;;;4986680;28;20483;-85
2022/09/09 00:10:23;;;;;;;921.50;842.97;;;14.70;99.90;;;;;;4986503;28;20455;-85
2022/09/09 00:12:58;;;;;;;919.87;844.17;;;14.70;99.90;;;;;;4986396;28;20455;-85
2022/09/09 00:15:31;;;;;;;927.10;853.00;;;14.80;99.90;;;;;;4986075;28;20465;-85
2022/09/09 00:18:09;;;;;;;923.93;851.87;;;14.90;99.90;;;;;;4987196;28;20992;-85
2022/09/09 00:20:45;;;;;;;926.17;856.63;;;14.90;99.90;;;;;;4985706;28;20439;-85
2022/09/09 00:23:19;;;;;;;913.90;844.90;;;14.90;99.90;;;;;;4985596;28;20482;-85
2022/09/09 00:25:52;;;;;;;920.50;850.20;;;14.90;99.90;;;;;;4986515;28;20475;-85
2022/09/09 00:28:21;;;;;;;925.50;854.90;;;14.80;99.90;;;;;;4985063;28;20482;-85
2022/09/09 00:30:49;;;;;;;916.83;847.63;;;14.90;99.90;;;;;;4985622;28;20457;-85
2022/09/09 00:33:18;;;;;;;906.03;841.23;;;14.90;99.90;;;;;;4987714;28;20460;-85
2022/09/09 00:35:50;;;;;;;893.53;830.60;;;14.90;99.90;;;;;;4986411;28;20466;-85
2022/09/09 00:38:23;;;;;;;900.00;836.40;;;15.00;99.90;;;;;;4986423;28;20471;-85
2022/09/09 00:40:53;;;;;;;891.13;830.73;;;14.90;99.90;;;;;;4986569;28;20463;-85
2022/09/09 00:43:29;;;;;;;863.27;806.47;;;14.90;99.90;;;;;;4986865;28;20453;-85
2022/09/09 00:46:19;;;;;;;844.40;789.30;;;14.90;99.90;;;;;;4985628;28;20866;-85
2022/09/09 00:48:55;;;;;;;837.37;783.17;;;14.80;99.90;;;;;;4985144;28;20477;-85
2022/09/09 00:51:35;;;;;;;828.27;775.07;;;14.90;99.90;;;;;;4986822;28;20462;-85
2022/09/09 00:54:19;;;;;;;797.03;746.63;;;14.80;99.90;;;;;;4985379;28;20432;-84
2022/09/09 00:56:53;;;;;;;825.60;773.23;;;14.70;99.90;;;;;;4984635;28;20988;-85
2022/09/09 00:59:29;;;;;;;831.63;778.93;;;14.70;99.90;;;;;;4986316;28;20485;-85
2022/09/09 01:01:56;;;;;;;834.60;780.30;;;14.70;99.90;;;;;;4985554;28;20462;-85
2022/09/09 01:04:31;;;;;;;837.87;782.27;;;14.60;99.90;;;;;;4984668;28;20610;-85
2022/09/09 01:07:08;;;;;;;844.03;788.57;;;14.60;99.90;;;;;;4985187;28;20471;-85
2022/09/09 01:09:45;;;;;;;864.27;805.90;;;14.70;99.90;;;;;;4984878;28;20459;-85
2022/09/09 01:12:16;;;;;;;883.97;822.37;;;14.40;99.90;;;;;;4984609;28;20438;-85
2022/09/09 01:14:48;;;;;;;895.07;831.27;;;14.30;99.90;;;;;;4984581;28;20440;-85
2022/09/09 01:17:19;;;;;;;900.80;834.97;;;14.30;99.90;;;;;;4985153;28;20473;-84
2022/09/09 01:19:56;;;;;;;914.90;847.30;;;14.20;99.90;;;;;;4985480;28;20459;-84
2022/09/09 01:22:34;;;;;;;913.53;844.30;;;14.20;99.90;;;;;;4983337;28;20869;-85
2022/09/09 01:25:36;;;;;;;907.87;839.43;;;14.10;99.90;;;;;;4984522;28;20454;-85
2022/09/09 01:28:09;;;;;;;913.70;843.47;;;14.10;99.90;;;;;;4980502;28;20489;-85
2022/09/09 01:30:39;;;;;;;912.40;842.67;;;14.10;99.90;;;;;;4984068;28;20462;-85
2022/09/09 01:33:06;;;;;;;911.63;841.50;;;14.10;99.90;;;;;;4985224;28;20451;-85
2022/09/09 01:35:46;;;;;;;894.97;827.07;;;14.40;99.90;;;;;;4981393;28;20459;-85
2022/09/09 01:38:13;;;;;;;883.40;817.77;;;14.40;99.90;;;;;;4981971;28;20510;-85
2022/09/09 01:40:40;;;;;;;875.73;814.03;;;14.50;99.90;;;;;;4983571;28;20956;-84
2022/09/09 01:43:09;;;;;;;839.63;782.83;;;14.60;99.90;;;;;;4984968;28;20474;-84
2022/09/09 01:45:36;;;;;;;827.17;771.47;;;14.40;99.90;;;;;;4986828;28;20513;-85
2022/09/09 01:48:03;;;;;;;822.27;767.20;;;14.60;99.90;;;;;;4987836;28;20478;-85
2022/09/09 01:50:30;;;;;;;809.07;755.60;;;14.50;99.90;;;;;;4988153;28;20509;-87
2022/09/09 01:52:59;;;;;;;798.83;747.00;;;14.60;99.90;;;;;;4987095;28;20456;-85
2022/09/09 01:55:30;;;;;;;787.23;735.43;;;14.60;99.90;;;;;;4987526;28;20470;-85
2022/09/09 01:58:10;;;;;;;781.93;730.40;;;14.50;99.90;;;;;;4988257;28;21007;-85
2022/09/09 02:00:44;;;;;;;788.03;735.17;;;14.60;99.90;;;;;;4988437;28;20518;-85
2022/09/09 02:03:21;;;;;;;795.73;743.97;;;14.70;99.90;;;;;;4988378;28;20482;-85
2022/09/09 02:05:57;;;;;;;780.57;729.07;;;14.70;99.90;;;;;;5000651;28;20450;-84
2022/09/09 02:08:29;;;;;;;786.90;735.57;;;14.70;99.90;;;;;;5000944;28;20570;-84
2022/09/09 02:11:02;;;;;;;770.13;719.20;;;14.90;99.90;;;;;;5001085;28;20454;-83
2022/09/09 02:13:33;;;;;;;772.27;721.07;;;14.70;99.90;;;;;;5001482;28;20436;-84
2022/09/09 02:16:08;;;;;;;760.70;710.53;;;14.90;99.90;;;;;;4992394;28;20439;-84
2022/09/09 02:18:39;;;;;;;762.70;713.50;;;15.00;99.90;;;;;;4988118;28;20517;-85
2022/09/09 02:21:07;;;;;;;751.43;702.87;;;14.80;99.90;;;;;;4988004;28;20454;-85
2022/09/09 02:23:35;;;;;;;763.20;712.57;;;14.90;99.90;;;;;;4988966;28;20454;-84
2022/09/09 02:26:04;;;;;;;760.87;710.97;;;14.80;99.90;;;;;;4988442;28;20463;-85
2022/09/09 02:28:33;;;;;;;768.27;717.80;;;14.80;99.90;;;;;;4989051;28;20472;-85
2022/09/09 02:31:02;;;;;;;774.50;723.90;;;14.70;99.90;;;;;;4987035;28;20452;-85
2022/09/09 02:33:34;;;;;;;773.97;722.87;;;14.60;99.90;;;;;;4985642;28;20461;-85
2022/09/09 02:36:06;;;;;;;778.83;727.23;;;14.70;99.90;;;;;;4984892;28;20455;-85
2022/09/09 02:38:39;;;;;;;785.77;733.57;;;14.60;99.90;;;;;;4984924;28;20502;-85
2022/09/09 02:41:06;;;;;;;783.87;730.47;;;14.50;99.90;;;;;;4986117;28;20451;-85
2022/09/09 02:43:34;;;;;;;780.87;728.30;;;14.60;99.90;;;;;;4984296;28;20509;-84
2022/09/09 02:46:09;;;;;;;791.70;737.57;;;14.40;99.90;;;;;;4983950;28;20451;-85
2022/09/09 02:48:46;;;;;;;803.27;748.27;;;14.40;99.90;;;;;;4985567;28;20485;-85
2022/09/09 02:51:19;;;;;;;793.80;739.00;;;14.60;99.90;;;;;;4985579;28;20631;-84
2022/09/09 02:53:51;;;;;;;793.73;739.67;;;14.60;99.90;;;;;;4984858;28;20498;-85
2022/09/09 02:56:23;;;;;;;785.70;732.23;;;14.50;99.90;;;;;;4985858;28;20468;-84
2022/09/09 02:58:51;;;;;;;766.77;716.37;;;14.70;99.90;;;;;;4986075;28;20480;-85
2022/09/09 03:01:19;;;;;;;753.30;702.90;;;14.70;99.90;;;;;;4984837;28;20459;-85
2022/09/09 03:03:46;;;;;;;759.40;708.20;;;14.60;99.90;;;;;;4984038;28;20465;-84
2022/09/09 03:06:14;;;;;;;771.97;719.47;;;14.50;99.90;;;;;;4985648;28;20465;-84
2022/09/09 03:08:41;;;;;;;788.63;735.03;;;14.40;99.90;;;;;;4984588;28;20479;-85
2022/09/09 03:11:10;;;;;;;792.57;737.47;;;14.50;99.90;;;;;;4985228;28;20455;-84
2022/09/09 03:13:37;;;;;;;808.53;751.60;;;14.40;99.90;;;;;;4984865;28;20478;-84
2022/09/09 03:16:05;;;;;;;818.03;760.17;;;14.50;99.90;;;;;;4983954;28;20459;-85
2022/09/09 03:18:34;;;;;;;817.30;759.03;;;14.40;99.90;;;;;;4984366;28;20482;-85
2022/09/09 03:21:01;;;;;;;807.07;749.00;;;14.50;99.90;;;;;;4984635;28;21150;-85
2022/09/09 03:23:27;;;;;;;808.13;750.07;;;14.40;99.90;;;;;;4985653;28;20483;-85
2022/09/09 03:25:56;;;;;;;820.43;763.13;;;14.50;99.90;;;;;;4983970;28;20451;-85
2022/09/09 03:28:29;;;;;;;804.27;748.57;;;14.60;99.90;;;;;;4984942;28;20474;-85
2022/09/09 03:30:59;;;;;;;777.87;725.40;;;14.70;99.90;;;;;;4985839;28;20455;-86
2022/09/09 03:33:26;;;;;;;773.17;722.27;;;14.70;99.90;;;;;;4984980;28;20451;-86
2022/09/09 03:35:56;;;;;;;757.53;708.80;;;14.80;99.90;;;;;;4983295;28;20462;-85
2022/09/09 03:38:23;;;;;;;764.07;715.00;;;14.80;99.90;;;;;;4984355;28;20488;-86
2022/09/09 03:40:52;;;;;;;763.47;714.77;;;14.80;99.90;;;;;;4983862;28;20459;-86
2022/09/09 03:43:21;;;;;;;781.10;730.20;;;14.70;99.90;;;;;;4982992;28;21027;-86
2022/09/09 03:45:48;;;;;;;796.07;743.50;;;14.60;99.90;;;;;;4983827;28;20973;-85
2022/09/09 03:48:15;;;;;;;792.07;739.67;;;14.60;99.90;;;;;;4985461;28;20463;-86
2022/09/09 03:50:45;;;;;;;800.47;747.13;;;14.60;99.90;;;;;;4983966;28;20451;-85
2022/09/09 03:53:14;;;;;;;801.57;748.00;;;14.60;99.90;;;;;;4983908;28;20459;-85
2022/09/09 03:55:45;;;;;;;807.57;753.20;;;14.50;99.90;;;;;;4984311;28;20462;-85
2022/09/09 03:58:12;;;;;;;816.33;761.20;;;14.50;99.90;;;;;;4984334;28;20555;-85
2022/09/09 04:00:43;;;;;;;820.10;764.60;;;14.60;99.90;;;;;;4982688;28;20907;-85
2022/09/09 04:03:10;;;;;;;799.40;746.10;;;14.60;99.90;;;;;;4982166;28;20478;-85
2022/09/09 04:05:39;;;;;;;793.50;739.90;;;14.50;99.90;;;;;;4983799;28;20452;-85
2022/09/09 04:08:06;;;;;;;796.43;744.03;;;14.60;99.90;;;;;;4982289;28;20487;-86
2022/09/09 04:10:36;;;;;;;768.97;719.23;;;14.70;99.90;;;;;;4983487;28;20463;-86
2022/09/09 04:13:02;;;;;;;775.27;725.80;;;14.70;99.90;;;;;;4983496;28;20522;-85
2022/09/09 04:15:30;;;;;;;774.67;725.00;;;14.80;99.90;;;;;;4982201;28;20455;-86
2022/09/09 04:17:56;;;;;;;766.93;717.67;;;14.80;99.90;;;;;;4982948;28;20483;-86
2022/09/09 04:20:23;;;;;;;776.13;727.33;;;14.80;99.90;;;;;;4982896;28;20457;-85
2022/09/09 04:22:50;;;;;;;756.43;709.70;;;14.90;99.90;;;;;;4982004;28;20508;-85
2022/09/09 04:25:17;;;;;;;740.10;695.63;;;14.90;99.90;;;;;;4982719;28;20455;-86
2022/09/09 04:27:45;;;;;;;736.23;691.53;;;14.90;99.90;;;;;;4982613;28;20479;-86
2022/09/09 04:30:13;;;;;;;720.80;679.10;;;15.00;99.90;;;;;;4985241;28;20458;-86
2022/09/09 04:32:39;;;;;;;701.30;662.23;;;15.00;99.90;;;;;;4986689;28;20484;-86
2022/09/09 04:35:06;;;;;;;667.13;632.03;;;14.90;99.90;;;;;;4986079;28;20458;-85
2022/09/09 04:37:33;;;;;;;615.00;583.10;;;15.10;99.90;;;;;;4984769;28;20483;-86
2022/09/09 04:40:01;;;;;;;597.80;568.83;;;15.10;99.90;;;;;;4985835;28;20524;-87
2022/09/09 04:42:28;;;;;;;603.97;574.87;;;15.20;99.90;;;;;;4985539;28;21028;-86
2022/09/09 04:44:56;;;;;;;618.30;585.90;;;15.20;99.90;;;;;;4984866;28;20455;-87
2022/09/09 04:47:23;;;;;;;671.47;635.57;;;15.10;99.90;;;;;;4984304;28;20486;-86
2022/09/09 04:49:50;;;;;;;689.63;651.63;;;15.10;99.90;;;;;;4983599;28;20469;-86
2022/09/09 04:52:17;;;;;;;675.37;639.17;;;15.10;99.90;;;;;;4983831;28;20459;-86
2022/09/09 04:54:44;;;;;;;659.97;624.37;;;15.10;99.90;;;;;;4983734;28;20459;-86
2022/09/09 04:57:12;;;;;;;684.40;646.10;;;15.00;99.90;;;;;;4983063;28;20472;-86
2022/09/09 04:59:39;;;;;;;674.87;638.17;;;15.00;99.90;;;;;;4984006;28;20461;-86
2022/09/09 05:02:07;;;;;;;672.97;637.07;;;15.20;99.90;;;;;;4983993;28;20452;-86
2022/09/09 05:04:55;;;;;;;617.23;586.63;;;15.10;99.90;;;;;;4983887;28;20447;-85
2022/09/09 05:07:21;;;;;;;561.03;535.90;;;15.40;99.90;;;;;;4982837;28;20498;-83
2022/09/09 05:09:49;;;;;;;541.90;518.47;;;15.40;99.90;;;;;;4978389;28;20539;-83
2022/09/09 05:12:16;;;;;;;520.20;498.00;;;15.50;99.90;;;;;;4977330;28;20458;-84
2022/09/09 05:14:43;;;;;;;497.97;477.77;;;15.50;99.90;;;;;;4977423;28;20463;-83
2022/09/09 05:17:13;;;;;;;509.00;487.50;;;15.50;99.90;;;;;;4978720;28;20828;-82
2022/09/09 05:19:39;;;;;;;504.63;483.97;;;15.60;99.90;;;;;;4981084;28;20463;-84
2022/09/09 05:22:07;;;;;;;542.27;518.83;;;15.50;99.90;;;;;;4981514;28;20459;-84
2022/09/09 05:24:34;;;;;;;501.93;481.33;;;15.50;99.90;;;;;;4981317;28;20460;-83
2022/09/09 05:27:02;;;;;;;469.17;450.47;;;15.50;99.90;;;;;;4981697;28;20466;-84
2022/09/09 05:29:28;;;;;;;525.77;503.10;;;15.60;99.90;;;;;;4980450;28;20458;-83
2022/09/09 05:31:55;;;;;;;545.00;520.67;;;15.60;99.90;;;;;;4980994;28;20465;-82
2022/09/09 05:34:23;;;;;;;565.60;540.50;;;15.60;99.90;;;;;;4980522;28;20455;-83
2022/09/09 05:37:35;;;;;;;628.40;597.43;;;15.50;99.90;;;;;;4983990;28;21132;-87
2022/09/09 05:40:12;;;;;;;664.87;629.97;;;15.60;99.90;;;;;;4926922;28;20513;-87
2022/09/09 05:42:39;;;;;;;665.80;630.00;;;15.60;99.90;;;;;;4981319;28;20563;-84
2022/09/09 05:45:08;;;;;;;639.73;607.43;;;15.70;99.90;;;;;;4981301;28;20972;-84
2022/09/09 05:47:35;;;;;;;612.60;582.37;;;15.90;99.90;;;;;;4980295;28;20565;-85
2022/09/09 05:50:03;;;;;;;548.40;523.73;;;16.00;99.90;;;;;;4980600;28;20471;-82
2022/09/09 05:52:31;;;;;;;471.20;452.87;;;16.10;99.90;;;;;;4982100;28;20456;-83
2022/09/09 05:55:20;;;;;;;340.80;328.87;;;16.10;99.90;;;;;;4980449;28;20550;-84
2022/09/09 05:57:51;;;;;;;186.63;180.57;;;16.20;99.90;;;;;;4979898;28;20483;-84
2022/09/09 06:00:21;;;;;;;164.33;158.40;;;16.40;99.90;;;;;;4980408;28;20830;-83
2022/09/09 06:02:53;;;;;;;83.87;80.37;;;16.40;99.90;;;;;;4984408;28;20481;-85
2022/09/09 06:05:24;;;;;;;70.03;67.23;;;16.60;99.90;;;;;;4980584;28;20545;-84
2022/09/09 06:07:53;;;;;;;45.10;43.03;;;16.50;99.90;;;;;;4981379;28;20478;-83
2022/09/09 06:10:20;;;;;;;29.50;28.00;;;16.50;99.90;;;;;;4981704;28;20450;-83
2022/09/09 06:12:50;;;;;;;24.87;23.67;;;16.60;99.70;;;;;;4981315;28;20453;-83
2022/09/09 06:15:17;;;;;;;16.70;15.20;;;16.70;99.50;;;;;;4981527;28;20479;-83
2022/09/09 06:17:45;;;;;;;24.97;23.30;;;16.70;99.10;;;;;;4980671;28;20524;-83
2022/09/09 06:20:12;;;;;;;20.50;19.03;;;16.70;99.60;;;;;;4983525;28;20455;-83
2022/09/09 06:22:41;;;;;;;12.90;12.10;;;16.70;98.90;;;;;;4981161;28;20493;-83
2022/09/09 06:25:12;;;;;;;11.10;8.80;;;16.70;98.60;;;;;;4981360;28;20480;-84
2022/09/09 06:27:42;;;;;;;9.70;8.83;;;16.70;97.80;;;;;;4982714;28;20536;-84
2022/09/09 06:30:13;;;;;;;9.10;4.93;;;16.80;98.00;;;;;;4979878;28;20462;-83
2022/09/09 06:32:40;;;;;;;9.10;6.90;;;16.70;97.50;;;;;;4981035;28;20810;-84
2022/09/09 06:35:11;;;;;;;9.87;4.10;;;16.80;98.10;;;;;;4981676;28;20455;-83
2022/09/09 06:37:48;;;;;;;7.47;4.70;;;16.80;96.80;;;;;;4981845;28;20478;-83
2022/09/09 06:40:17;;;;;;;9.27;3.13;;;16.90;96.90;;;;;;4980818;28;20559;-84
2022/09/09 06:42:46;;;;;;;9.33;2.70;;;17.20;96.10;;;;;;4982248;28;20462;-84
2022/09/09 06:45:13;;;;;;;5.90;2.03;;;17.40;95.30;;;;;;4980574;28;21014;-84
2022/09/09 06:47:40;;;;;;;7.80;2.37;;;17.60;94.90;;;;;;4979949;28;20474;-84
2022/09/09 06:50:07;;;;;;;6.90;1.90;;;17.70;94.70;;;;;;5017247;28;20480;-83
2022/09/09 06:52:34;;;;;;;9.07;2.00;;;17.90;93.70;;;;;;5018466;28;20504;-84
2022/09/09 06:55:01;;;;;;;6.80;2.00;;;17.90;94.20;;;;;;5017790;28;20453;-84
2022/09/09 06:57:29;;;;;;;5.47;1.93;;;17.90;93.90;;;;;;5018924;28;20477;-84
2022/09/09 06:59:56;;;;;;;7.30;1.67;;;18.00;92.60;;;;;;5019085;28;20458;-85
2022/09/09 07:02:22;;;;;;;9.00;1.93;;;17.80;93.00;;;;;;5018898;28;20460;-84
2022/09/09 07:04:51;;;;;;;10.67;1.83;;;17.80;92.10;;;;;;5019427;28;20483;-84
2022/09/09 07:07:18;;;;;;;5.40;1.67;;;17.70;91.60;;;;;;5018257;28;20907;-83
2022/09/09 07:09:46;;;;;;;8.10;2.27;;;17.80;91.50;;;;;;5019312;28;20453;-84
2022/09/09 07:12:13;;;;;;;4.63;1.77;;;17.80;91.20;;;;;;5019035;28;20450;-84
2022/09/09 07:14:50;;;;;;;10.63;2.90;;;18.00;90.70;;;;;;5018847;28;20460;-84
2022/09/09 07:17:17;;;;;;;5.77;1.43;;;17.90;90.80;;;;;;5027812;28;20479;-82
2022/09/09 07:19:44;;;;;;;8.73;1.47;;;18.10;91.40;;;;;;5018678;28;20512;-84
2022/09/09 07:22:11;;;;;;;11.80;1.63;;;18.30;85.90;;;;;;5018155;28;20985;-84
2022/09/09 07:24:38;;;;;;;12.40;1.73;;;18.60;87.00;;;;;;5018153;28;20479;-85
2022/09/09 07:27:05;;;;;;;6.30;1.37;;;18.70;85.80;;;;;;5018990;28;20533;-84
2022/09/09 07:29:34;;;;;;;7.27;1.70;;;18.80;86.70;;;;;;5018728;28;20450;-85
2022/09/09 07:32:04;;;;;;;7.07;1.80;;;18.90;83.00;;;;;;5018645;28;20460;-84
2022/09/09 07:34:30;;;;;;;6.07;1.20;;;18.90;84.00;;;;;;5018489;28;20833;-84
2022/09/09 07:36:58;;;;;;;7.60;2.10;;;18.90;79.30;;;;;;5019001;28;20487;-85
2022/09/09 07:39:24;;;;;;;6.97;1.77;;;18.90;79.00;;;;;;5017892;28;20457;-85
2022/09/09 07:41:51;;;;;;;4.57;1.40;;;18.80;77.30;;;;;;5018447;28;20456;-85
2022/09/09 07:44:21;;;;;;;8.93;1.60;;;19.00;78.60;;;;;;5017632;28;20519;-85
2022/09/09 07:46:48;;;;;;;7.63;1.70;;;19.10;78.00;;;;;;5018229;28;20549;-85
2022/09/09 07:49:17;;;;;;;5.80;1.23;;;19.30;75.00;;;;;;5019275;28;20465;-84
2022/09/09 07:51:47;;;;;;;10.20;1.63;;;19.50;77.60;;;;;;5018297;28;20513;-84
2022/09/09 07:54:16;;;;;;;8.37;2.27;;;19.70;73.50;;;;;;5017608;28;20461;-84
2022/09/09 07:56:43;;;;;;;6.80;1.50;;;19.70;73.50;;;;;;5017915;28;20485;-85
2022/09/09 07:59:11;;;;;;;5.73;1.30;;;19.60;73.80;;;;;;5017772;28;20455;-85
2022/09/09 08:01:40;;;;;;;5.33;1.80;;;19.50;71.80;;;;;;5017983;28;20457;-85
2022/09/09 08:04:09;;;;;;;6.40;1.10;;;20.00;72.60;;;;;;5019051;28;20548;-84
2022/09/09 08:06:39;;;;;;;8.00;1.50;;;20.20;70.30;;;;;;5017707;28;20486;-85
2022/09/09 08:09:07;;;;;;;7.80;1.33;;;20.40;68.50;;;;;;5018119;28;20476;-84
2022/09/09 08:11:35;;;;;;;8.07;1.60;;;20.50;68.40;;;;;;5018460;28;20463;-84
2022/09/09 08:14:03;;;;;;;7.60;1.80;;;20.30;68.40;;;;;;5018109;28;20448;-84
2022/09/09 08:16:35;;;;;;;7.00;1.77;;;20.40;68.20;;;;;;5018294;28;20500;-85
2022/09/09 08:19:02;;;;;;;10.90;1.93;;;20.70;67.10;;;;;;5018297;28;20472;-85
2022/09/09 08:21:31;;;;;;;8.20;1.50;;;20.70;62.90;;;;;;5017841;28;20452;-85
2022/09/09 08:24:01;;;;;;;11.47;1.40;;;20.70;62.50;;;;;;5017492;28;20490;-85
2022/09/09 08:26:29;;;;;;;11.63;1.87;;;20.70;62.50;;;;;;5018455;28;20461;-85
2022/09/09 08:28:57;;;;;;;6.57;1.40;;;21.00;60.80;;;;;;5018004;28;20480;-85
2022/09/09 08:31:27;;;;;;;6.23;1.40;;;21.10;60.50;;;;;;5017966;28;20455;-85
2022/09/09 08:33:55;;;;;;;5.97;1.40;;;21.10;62.80;;;;;;5018858;28;20451;-85
2022/09/09 08:36:25;;;;;;;11.43;1.43;;;21.10;59.40;;;;;;5019410;28;20460;-85
2022/09/09 08:38:54;;;;;;;8.63;1.77;;;21.00;60.30;;;;;;5019066;28;20825;-85
2022/09/09 08:41:45;;;;;;;6.97;1.73;;;20.90;59.10;;;;;;5018936;28;20514;-84
2022/09/09 08:44:22;;;;;;;11.73;1.80;;;21.00;58.00;;;;;;5018915;28;20477;-84
2022/09/09 08:46:58;;;;;;;6.70;1.50;;;20.60;56.40;;;;;;5017884;28;20816;-85
2022/09/09 08:49:40;;;;;;;8.73;1.47;;;20.80;58.40;;;;;;5018098;28;20465;-85
2022/09/09 08:52:15;;;;;;;6.80;1.50;;;21.00;58.70;;;;;;5016983;28;20949;-84
2022/09/09 08:54:42;;;;;;;6.70;1.63;;;20.90;58.60;;;;;;5017693;28;20450;-85
2022/09/09 08:57:15;;;;;;;6.67;1.43;;;20.80;59.00;;;;;;5017434;28;20486;-85
2022/09/09 08:59:42;;;;;;;6.20;1.80;;;20.50;55.40;;;;;;5017475;28;20462;-84
2022/09/09 09:02:18;;;;;;;7.17;1.33;;;20.20;57.70;;;;;;5017970;28;20457;-83
2022/09/09 09:04:59;;;;;;;9.17;1.20;;;20.10;59.20;;;;;;5018175;28;20642;-84
2022/09/09 09:07:40;;;;;;;6.30;1.17;;;20.00;55.40;;;;;;5017006;28;20488;-83
2022/09/09 09:10:16;;;;;;;5.07;1.50;;;20.20;53.40;;;;;;5018633;28;20458;-83
2022/09/09 09:12:47;;;;;;;6.70;1.30;;;20.40;53.60;;;;;;5013342;28;20458;-83
2022/09/09 09:15:20;;;;;;;6.33;1.20;;;20.60;53.80;;;;;;5017306;28;20480;-84
2022/09/09 09:17:48;;;;;;;5.60;1.23;;;20.70;52.80;;;;;;5017462;28;20474;-84
2022/09/09 09:20:16;;;;;;;5.20;1.43;;;20.90;54.30;;;;;;5017065;28;20468;-84
2022/09/09 09:22:50;;;;;;;8.53;1.33;;;20.70;52.40;;;;;;5016628;28;20466;-85
2022/09/09 09:25:19;;;;;;;4.70;1.27;;;21.20;54.30;;;;;;5030667;28;20475;-84
2022/09/09 09:27:58;;;;;;;5.27;1.20;;;21.80;49.90;;;;;;5031232;28;20488;-83
2022/09/09 09:30:36;;;;;;;7.30;1.40;;;22.30;46.50;;;;;;5031353;28;20455;-83
2022/09/09 09:33:09;;;;;;;6.77;1.10;;;23.20;44.60;;;;;;5030776;28;20460;-84
2022/09/09 09:35:36;;;;;;;5.40;1.30;;;23.50;41.10;;;;;;5021791;28;20455;-85
2022/09/09 09:38:11;;;;;;;4.63;1.00;;;23.70;40.40;;;;;;5018302;28;20499;-84
2022/09/09 09:40:48;;;;;;;6.30;1.30;;;24.30;38.50;;;;;;5017713;28;20452;-83
2022/09/09 09:43:21;;;;;;;5.33;1.23;;;24.60;38.00;;;;;;5018354;28;20449;-84
2022/09/09 09:45:48;;;;;;;6.00;1.33;;;24.70;36.90;;;;;;5018357;28;20473;-84
2022/09/09 09:48:15;;;;;;;14.37;1.33;;;25.00;33.70;;;;;;5017715;28;20599;-85
2022/09/09 09:50:50;;;;;;;6.60;1.40;;;24.90;32.60;;;;;;5017613;28;20839;-85
2022/09/09 09:53:23;;;;;;;5.47;1.10;;;25.40;29.20;;;;;;5018367;28;20952;-84
2022/09/09 09:55:55;;;;;;;4.83;1.27;;;25.10;30.60;;;;;;5018013;28;20937;-84
2022/09/09 09:58:25;;;;;;;4.07;0.83;;;24.70;30.40;;;;;;5017673;28;20476;-84
2022/09/09 10:00:54;;;;;;;5.73;1.20;;;24.30;31.00;;;;;;5018077;28;20456;-85
2022/09/09 10:03:27;;;;;;;6.50;1.17;;;23.40;33.60;;;;;;5017868;28;20461;-84
2022/09/09 10:05:56;;;;;;;3.97;0.83;;;23.20;35.20;;;;;;5020624;28;20475;-84
2022/09/09 10:08:23;;;;;;;6.80;1.43;;;22.80;37.90;;;;;;5020880;28;21109;-84
2022/09/09 10:11:06;;;;;;;5.00;1.00;;;23.60;37.60;;;;;;5021141;28;20466;-84
2022/09/09 10:13:45;;;;;;;5.80;1.00;;;24.60;30.30;;;;;;5021067;28;20836;-84
2022/09/09 10:16:26;;;;;;;5.23;1.63;;;24.20;30.80;;;;;;5021165;28;20525;-85
2022/09/09 10:18:59;;;;;;;5.23;1.00;;;24.20;30.90;;;;;;5020911;28;21037;-84
2022/09/09 10:21:45;;;;;;;5.60;1.00;;;24.00;30.60;;;;;;5020629;28;20465;-84
2022/09/09 10:24:36;;;;;;;3.90;0.80;;;23.60;30.20;;;;;;5020348;28;20479;-83
2022/09/09 10:27:12;;;;;;;5.40;1.10;;;22.90;31.80;;;;;;5020766;28;20490;-84
2022/09/09 10:30:01;;;;;;;5.93;1.47;;;22.80;33.60;;;;;;5020825;28;20546;-83
2022/09/09 10:32:38;;;;;;;5.03;1.00;;;22.90;35.50;;;;;;5020541;28;20466;-83
2022/09/09 10:35:13;;;;;;;5.37;1.03;;;22.90;34.40;;;;;;5020827;28;20450;-84
2022/09/09 10:37:53;;;;;;;6.40;1.20;;;22.80;37.90;;;;;;5021135;28;20975;-85
2022/09/09 10:40:32;;;;;;;3.90;1.10;;;23.00;38.10;;;;;;5020979;28;20540;-84
2022/09/09 10:43:08;;;;;;;5.70;1.47;;;23.00;36.50;;;;;;5020512;28;20456;-83
2022/09/09 10:45:45;;;;;;;5.90;1.50;;;22.50;37.60;;;;;;5019801;28;20484;-84
2022/09/09 10:48:31;;;;;;;8.60;1.13;;;22.40;39.40;;;;;;5020106;28;20487;-83
2022/09/09 10:51:11;;;;;;;7.70;1.10;;;22.00;40.00;;;;;;5020781;28;20545;-84
2022/09/09 10:53:51;;;;;;;5.00;1.00;;;21.80;41.60;;;;;;5019365;28;20508;-84
2022/09/09 10:56:21;;;;;;;15.13;1.23;;;21.80;40.30;;;;;;5019710;28;20551;-84
2022/09/09 10:58:53;;;;;;;4.60;1.07;;;21.90;44.20;;;;;;5021105;28;20470;-86
2022/09/09 11:01:25;;;;;;;5.57;1.10;;;21.70;42.80;;;;;;5022210;28;20458;-84
2022/09/09 11:03:57;;;;;;;5.97;1.20;;;21.40;43.90;;;;;;5019333;28;20960;-85
2022/09/09 11:06:30;;;;;;;5.03;1.20;;;21.40;44.00;;;;;;5020345;28;20830;-84
2022/09/09 11:09:01;;;;;;;5.53;1.00;;;21.40;44.90;;;;;;5020293;28;20906;-84
2022/09/09 11:11:33;;;;;;;6.30;1.40;;;21.10;43.90;;;;;;5019454;28;20572;-84
2022/09/09 11:14:05;;;;;;;4.73;0.80;;;20.90;44.20;;;;;;5019035;28;20455;-85
2022/09/09 11:16:41;;;;;;;6.40;1.00;;;20.90;48.00;;;;;;5019285;28;20491;-84
2022/09/09 11:19:15;;;;;;;6.13;1.10;;;20.80;46.60;;;;;;5019820;28;20484;-84
2022/09/09 11:21:46;;;;;;;7.47;1.27;;;21.10;47.20;;;;;;5018757;28;20466;-85
2022/09/09 11:24:19;;;;;;;6.17;1.10;;;21.70;41.60;;;;;;5018389;28;20465;-84
2022/09/09 11:26:51;;;;;;;4.70;1.20;;;22.00;41.70;;;;;;5019698;28;20971;-84
2022/09/09 11:29:41;;;;;;;4.40;0.97;;;21.80;39.40;;;;;;5019330;28;20454;-83
2022/09/09 11:32:28;;;;;;;8.20;1.23;;;22.00;40.40;;;;;;5018589;28;20838;-84
2022/09/09 11:35:02;;;;;;;6.17;1.03;;;21.80;42.30;;;;;;5020411;28;20458;-84
2022/09/09 11:37:50;;;;;;;5.33;1.43;;;21.60;41.30;;;;;;5018046;28;20488;-84
2022/09/09 11:40:22;;;;;;;4.40;1.10;;;21.50;42.40;;;;;;5018700;28;20457;-84
2022/09/09 11:42:50;;;;;;;4.33;1.13;;;21.30;41.00;;;;;;5021056;28;20443;-84
2022/09/09 11:45:25;;;;;;;5.13;1.20;;;21.20;42.50;;;;;;5018418;28;20477;-84
2022/09/09 11:47:57;;;;;;;5.63;1.20;;;21.10;41.90;;;;;;5019687;28;20484;-84
2022/09/09 11:50:37;;;;;;;6.90;1.77;;;20.90;44.50;;;;;;5019817;28;20464;-85
2022/09/09 11:53:22;;;;;;;7.23;1.80;;;20.80;45.70;;;;;;5018377;28;20471;-82
2022/09/09 11:56:00;;;;;;;5.37;1.17;;;20.80;47.00;;;;;;5008182;28;20493;-85
2022/09/09 11:58:29;;;;;;;7.13;1.30;;;21.10;52.00;;;;;;4998104;28;20496;-85
2022/09/09 12:00:55;;;;;;;9.53;1.30;;;21.00;48.10;;;;;;4998172;28;20461;-85
2022/09/09 12:03:39;;;;;;;6.00;1.50;;;21.30;48.10;;;;;;5000082;28;20447;-85
2022/09/09 12:06:16;;;;;;;13.53;1.30;;;22.10;45.60;;;;;;4998686;28;20490;-84
2022/09/09 12:08:46;;;;;;;5.97;1.07;;;22.80;42.10;;;;;;4998047;28;20489;-85
2022/09/09 12:11:13;;;;;;;6.53;1.10;;;22.90;41.90;;;;;;5000099;28;20459;-85
2022/09/09 12:13:41;;;;;;;6.20;1.20;;;23.30;39.10;;;;;;4998712;28;20514;-85
2022/09/09 12:16:30;;;;;;;11.50;1.40;;;23.60;38.70;;;;;;4998291;28;20462;-85
2022/09/09 12:19:07;;;;;;;8.90;1.57;;;24.40;39.40;;;;;;4999177;28;20571;-85
2022/09/09 12:21:40;;;;;;;7.70;1.30;;;24.50;35.00;;;;;;4998197;28;20466;-84
2022/09/09 12:24:10;;;;;;;6.77;1.40;;;24.40;35.90;;;;;;4998828;28;20458;-85
2022/09/09 12:26:40;;;;;;;6.63;1.30;;;24.80;34.90;;;;;;4997335;28;21006;-83
2022/09/09 12:29:16;;;;;;;4.67;1.00;;;25.50;31.00;;;;;;4998156;28;20456;-85
2022/09/09 12:31:47;;;;;;;6.93;1.30;;;25.00;30.70;;;;;;4999467;28;20472;-85
2022/09/09 12:34:21;;;;;;;5.30;1.73;;;24.10;30.30;;;;;;4998488;28;20453;-84
2022/09/09 12:36:59;;;;;;;8.43;1.50;;;23.60;35.00;;;;;;4997407;28;20952;-84
2022/09/09 12:39:33;;;;;;;15.53;2.53;;;23.20;36.30;;;;;;4998353;28;20447;-84
2022/09/09 12:42:00;;;;;;;8.20;1.60;;;20.80;99.90;;;;;;4999100;28;20530;-84
2022/09/09 12:44:30;;;;;;;8.00;1.67;;;20.20;91.80;;;;;;4998230;28;20460;-83
2022/09/09 12:47:00;;;;;;;5.40;1.30;;;20.80;97.00;;;;;;4997958;28;20459;-83
2022/09/09 12:49:35;;;;;;;5.80;1.60;;;22.10;88.00;;;;;;4998835;28;20526;-84